• NOTAM LFRU

     22/04/21 12:00Z - 20/04/22 11:59Z
    E) PROTECTION CIRCULATION ET PROCEDURES AERODROME - SUP AIP 064/21: OBJET: CREATION, A TITRE EXPERIMENTAL, D'UNE ZONE A UTILISATION OBLIGATOIRE DE LA RADIO (RMZ). CE SUP AIP EST DISPONIBLE SUR WWW.SIA.AVIATION-CIVILE.GOUV.FR











  • PHOTOS SATELLITE

CARTE TEMSI

CARTE WINTEM

  • Vent au sol

  • Vent à 2000ft

  • ANIMATION RADAR

  • METAR/TAF LFRU (MORLAIX / Ploujean)

    LFRU 301400Z AUTO 28015KT 9999 FEW023 SCT028 BKN037 20/13 Q1012

    METAR/TAF LFRB (BREST / Guipavas)

    LFRB 301400Z AUTO 29012KT 260V320 9999 BKN021 BKN034 OVC041 19/14 Q1013 TEMPO 28015G25KT 4000 SHRA BKN015TCU

    TAF LFRB 301100Z 3012/3118 28012KT 9999 BKN025 TEMPO 3012/3018 28015G25KT PROB40 TEMPO 3012/3020 4000 SHRA BKN015TCU PROB30 TEMPO 3020/3106 5000 SHRA BKN012 BECMG 3022/3024 VRB05KT TEMPO 3106/3108 4000 SHRA BKN012TCU TEMPO 3108/3115 3000 SHRA BKN015CB BECMG 3110/3112 24010KT

    METAR/TAF LFRO (LANNION / Servel)

    LFRO 301400Z AUTO 27017KT 9999 BKN014 BKN033 BKN039 18/15 Q1013